Terminal Aerodrome Forecast
Issued by NWS Portland, ME

Home | Current Version | Previous Version | Text Only | Print | Product List | Glossary On
Versions: 1 2 3 4 5 6 7 8 9 10 11 12 13 14 15 16 17 18 19 20
611
FTUS41 KGYX 281726
TAFPWM
TAF
KPWM 281726Z 2818/2918 29007KT P6SM SCT050
     FM290000 VRB03KT P6SM SCT250
     FM291500 23008KT P6SM SCT050 BKN100=

USA.gov is the U.S. government's official web portal to all federal, state and local government web resources and services.